Time,TemperatureF,DewpointF,PressureIn,WindDirection,WindDirectionDegrees,WindSpeedMPH,WindSpeedGustMPH,Humidity,HourlyPrecipIn,Conditions,Clouds,dailyrainin,SoftwareType,DateUTC
2013-01-17 00:02:00,31.4,21.4,32.89,SSE,158,7.0,12.0,66,0.00,CLR,CLR,0.00,WeatherDisplay:10.23,2013-01-17 08:02:00,
2013-01-17 00:12:00,32.1,21.3,32.89,SSE,155,7.0,12.0,64,0.00,CLR,CLR,0.00,WeatherDisplay:10.23,2013-01-17 08:12:00,
2013-01-17 00:22:00,32.2,21.0,32.89,SSE,152,10.0,14.0,63,0.00,CLR,CLR,0.00,WeatherDisplay:10.23,2013-01-17 08:22:00,
2013-01-17 00:32:00,32.1,20.9,32.89,SSE,147,12.0,12.0,63,0.00,CLR,CLR,0.00,WeatherDisplay:10.23,2013-01-17 08:32:00,
2013-01-17 00:42:00,32.7,21.1,32.89,SE,130,8.0,12.0,62,0.00,CLR,CLR,0.00,WeatherDisplay:10.23,2013-01-17 08:42:00,
2013-01-17 00:52:00,33.8,21.0,32.89,SE,129,6.0,12.0,59,0.00,CLR,CLR,0.00,WeatherDisplay:10.23,2013-01-17 08:52:00,
2013-01-17 01:02:00,34.1,20.9,32.89,SE,127,5.0,8.0,58,0.00,CLR,CLR,0.00,WeatherDisplay:10.23,2013-01-17 09:02:00,
2013-01-17 01:12:00,34.5,20.9,32.89,SE,129,6.0,9.0,57,0.00,CLR,CLR,0.00,WeatherDisplay:10.23,2013-01-17 09:12:00,
2013-01-17 01:22:00,34.3,20.7,32.89,SE,137,7.0,12.0,57,0.00,CLR,CLR,0.00,WeatherDisplay:10.23,2013-01-17 09:22:00,
2013-01-17 01:32:00,33.4,20.2,32.89,SSE,149,8.0,12.0,58,0.00,CLR,CLR,0.00,WeatherDisplay:10.23,2013-01-17 09:32:00,
2013-01-17 01:42:00,33.7,20.1,32.89,SE,146,7.0,13.0,57,0.00,CLR,CLR,0.00,WeatherDisplay:10.23,2013-01-17 09:42:00,
2013-01-17 01:52:00,31.7,20.2,32.89,SSE,153,8.0,12.0,62,0.00,CLR,CLR,0.00,WeatherDisplay:10.23,2013-01-17 09:52:00,
2013-01-17 02:02:00,31.1,20.4,32.89,SSE,158,9.0,12.0,64,0.00,CLR,CLR,0.00,WeatherDisplay:10.23,2013-01-17 10:02:00,
2013-01-17 02:12:00,32.1,20.2,32.89,SE,125,8.0,14.0,61,0.00,CLR,CLR,0.00,WeatherDisplay:10.23,2013-01-17 10:12:00,
2013-01-17 02:22:00,33.6,20.0,32.89,SE,126,7.0,12.0,57,0.00,CLR,CLR,0.00,WeatherDisplay:10.23,2013-01-17 10:22:00,
2013-01-17 02:27:00,33.9,19.9,32.89,SE,133,7.0,12.0,56,0.00,CLR,CLR,0.00,WeatherDisplay:10.23,2013-01-17 10:27:00,
2013-01-17 02:36:00,34.2,20.2,32.89,SE,136,7.0,10.0,56,0.00,CLR,CLR,0.00,WeatherDisplay:10.23,2013-01-17 10:36:00,
2013-01-17 02:41:00,33.9,19.9,32.89,SE,140,8.0,10.0,56,0.00,CLR,CLR,0.00,WeatherDisplay:10.23,2013-01-17 10:41:00,
2013-01-17 02:51:00,31.4,19.5,32.89,SSE,165,9.0,12.0,61,0.00,CLR,CLR,0.00,WeatherDisplay:10.23,2013-01-17 10:51:00,
2013-01-17 02:57:00,30.3,19.6,32.89,South,174,8.0,12.0,64,0.00,CLR,CLR,0.00,WeatherDisplay:10.23,2013-01-17 10:57:00,
2013-01-17 03:02:00,29.6,19.6,32.89,South,174,10.0,13.0,66,0.00,CLR,CLR,0.00,WeatherDisplay:10.23,2013-01-17 11:02:00,
2013-01-17 03:07:00,29.7,19.8,32.89,South,178,9.0,15.0,66,0.00,CLR,CLR,0.00,WeatherDisplay:10.23,2013-01-17 11:07:00,
2013-01-17 03:32:00,31.6,19.7,32.89,SE,144,12.0,15.0,61,0.00,CLR,CLR,0.00,WeatherDisplay:10.23,2013-01-17 11:32:00,
2013-01-17 03:42:00,31.1,19.6,32.89,SE,135,8.0,13.0,62,0.00,CLR,CLR,0.00,WeatherDisplay:10.23,2013-01-17 11:42:00,
2013-01-17 03:52:00,31.6,19.3,32.89,SE,135,8.0,12.0,60,0.00,CLR,CLR,0.00,WeatherDisplay:10.23,2013-01-17 11:52:00,
2013-01-17 04:02:00,32.5,19.4,32.89,SE,137,8.0,10.0,58,0.00,CLR,CLR,0.00,WeatherDisplay:10.23,2013-01-17 12:02:00,
2013-01-17 04:10:00,32.5,19.4,32.89,SE,133,8.0,12.0,58,0.00,CLR,CLR,0.00,WeatherDisplay:10.23,2013-01-17 12:10:00,
2013-01-17 04:20:00,31.7,19.0,32.89,SSE,152,8.0,12.0,59,0.00,CLR,CLR,0.00,WeatherDisplay:10.23,2013-01-17 12:20:00,
2013-01-17 04:30:00,30.1,19.0,32.89,SSE,158,9.0,12.0,63,0.00,CLR,CLR,0.00,WeatherDisplay:10.23,2013-01-17 12:30:00,
2013-01-17 04:39:00,30.5,19.4,32.89,SSE,155,9.0,13.0,63,0.00,CLR,CLR,0.00,WeatherDisplay:10.23,2013-01-17 12:39:00,
2013-01-17 04:49:00,30.2,19.1,32.89,SE,146,6.0,12.0,63,0.00,CLR,CLR,0.00,WeatherDisplay:10.23,2013-01-17 12:49:00,
2013-01-17 04:59:00,31.5,19.2,32.89,SE,125,7.0,13.0,60,0.00,CLR,CLR,0.00,WeatherDisplay:10.23,2013-01-17 12:59:00,
2013-01-17 05:09:00,31.6,18.9,32.89,SE,142,8.0,13.0,59,0.00,CLR,CLR,0.00,WeatherDisplay:10.23,2013-01-17 13:09:00,
2013-01-17 05:19:00,31.0,19.1,32.89,SSE,158,9.0,17.0,61,0.00,CLR,CLR,0.00,WeatherDisplay:10.23,2013-01-17 13:19:00,
2013-01-17 05:29:00,31.1,18.8,32.89,SSE,151,10.0,15.0,60,0.00,CLR,CLR,0.00,WeatherDisplay:10.23,2013-01-17 13:29:00,
2013-01-17 05:39:00,29.3,18.7,32.89,SSE,155,10.0,13.0,64,0.00,CLR,CLR,0.00,WeatherDisplay:10.23,2013-01-17 13:39:00,
2013-01-17 05:49:00,28.9,18.6,32.89,SE,142,12.0,15.0,65,0.00,CLR,CLR,0.00,WeatherDisplay:10.23,2013-01-17 13:49:00,
2013-01-17 05:59:00,29.7,18.7,32.89,SSE,150,12.0,14.0,63,0.00,CLR,CLR,0.00,WeatherDisplay:10.23,2013-01-17 13:59:00,
2013-01-17 06:09:00,30.2,18.8,32.89,SE,127,8.0,13.0,62,0.00,CLR,CLR,0.00,WeatherDisplay:10.23,2013-01-17 14:09:00,
2013-01-17 06:19:00,30.3,18.5,32.89,SE,137,6.0,10.0,61,0.00,CLR,CLR,0.00,WeatherDisplay:10.23,2013-01-17 14:19:00,
2013-01-17 06:29:00,30.5,18.2,32.89,SE,133,8.0,14.0,60,0.00,CLR,CLR,0.00,WeatherDisplay:10.23,2013-01-17 14:29:00,
2013-01-17 06:39:00,31.4,18.3,32.89,ESE,122,6.0,12.0,58,0.00,CLR,CLR,0.00,WeatherDisplay:10.23,2013-01-17 14:39:00,
2013-01-17 06:49:00,31.7,18.3,32.89,ESE,113,6.0,12.0,57,0.00,CLR,CLR,0.00,WeatherDisplay:10.23,2013-01-17 14:49:00,
2013-01-17 06:59:00,31.7,18.2,32.89,SE,129,6.0,10.0,57,0.00,CLR,CLR,0.00,WeatherDisplay:10.23,2013-01-17 14:59:00,
2013-01-17 07:09:00,31.5,18.1,32.89,SE,137,6.0,13.0,57,0.00,OVC,OVC,0.00,WeatherDisplay:10.23,2013-01-17 15:09:00,
2013-01-17 07:18:00,30.7,18.1,32.89,SE,135,7.0,9.0,59,0.00,OVC,OVC,0.00,WeatherDisplay:10.23,2013-01-17 15:18:00,
2013-01-17 07:23:00,30.2,18.0,32.89,SE,137,7.0,9.0,60,0.00,OVC,OVC,0.00,WeatherDisplay:10.23,2013-01-17 15:23:00,
2013-01-17 07:28:00,30.2,18.0,32.89,SE,134,3.0,13.0,60,0.00,OVC,OVC,0.00,WeatherDisplay:10.23,2013-01-17 15:28:00,
2013-01-17 07:38:00,29.9,17.7,32.89,ESE,120,9.0,12.0,60,0.00,OVC,OVC,0.00,WeatherDisplay:10.23,2013-01-17 15:38:00,
2013-01-17 07:48:00,30.7,18.1,32.89,SE,125,5.0,9.0,59,0.00,OVC,OVC,0.00,WeatherDisplay:10.23,2013-01-17 15:48:00,
2013-01-17 07:58:00,31.0,18.0,32.89,ESE,113,7.0,12.0,58,0.00,OVC,OVC,0.00,WeatherDisplay:10.23,2013-01-17 15:58:00,
2013-01-17 08:08:00,30.5,17.9,32.89,SE,128,6.0,7.0,59,0.00,CLR,CLR,0.00,WeatherDisplay:10.23,2013-01-17 16:08:00,
2013-01-17 08:18:00,30.2,18.0,32.89,SE,137,6.0,7.0,60,0.00,CLR,CLR,0.00,WeatherDisplay:10.23,2013-01-17 16:18:00,
2013-01-17 08:28:00,30.9,18.3,32.89,SE,143,6.0,9.0,59,0.00,CLR,CLR,0.00,WeatherDisplay:10.23,2013-01-17 16:28:00,
2013-01-17 08:38:00,31.1,18.1,32.89,SSE,158,7.0,9.0,58,0.00,CLR,CLR,0.00,WeatherDisplay:10.23,2013-01-17 16:38:00,
2013-01-17 08:48:00,31.9,18.4,32.89,SSE,148,8.0,12.0,57,0.00,CLR,CLR,0.00,WeatherDisplay:10.23,2013-01-17 16:48:00,
2013-01-17 08:58:00,32.9,18.5,32.89,SE,135,6.0,12.0,55,0.00,OVC,OVC,0.00,WeatherDisplay:10.23,2013-01-17 16:58:00,
2013-01-17 09:08:00,34.1,18.8,32.89,SE,128,7.0,9.0,53,0.00,OVC,OVC,0.00,WeatherDisplay:10.23,2013-01-17 17:08:00,
2013-01-17 09:18:00,34.9,18.1,32.89,SE,137,9.0,12.0,50,0.00,OVC,OVC,0.00,WeatherDisplay:10.23,2013-01-17 17:18:00,
2013-01-17 09:28:00,35.4,18.6,32.89,SE,134,8.0,15.0,50,0.00,OVC,OVC,0.00,WeatherDisplay:10.23,2013-01-17 17:28:00,
2013-01-17 09:38:00,35.8,18.5,32.89,ESE,114,8.0,16.0,49,0.00,OVC,OVC,0.00,WeatherDisplay:10.23,2013-01-17 17:38:00,
2013-01-17 09:48:00,36.5,19.2,32.89,ESE,114,7.0,12.0,49,0.00,OVC,OVC,0.00,WeatherDisplay:10.23,2013-01-17 17:48:00,
2013-01-17 09:58:00,36.9,19.1,32.89,ESE,113,10.0,16.0,48,0.00,CLR,CLR,0.00,WeatherDisplay:10.23,2013-01-17 17:58:00,
2013-01-17 10:07:00,37.6,19.2,32.89,ESE,113,10.0,15.0,47,0.00,CLR,CLR,0.00,WeatherDisplay:10.23,2013-01-17 18:07:00,
2013-01-17 10:17:00,38.1,19.2,32.89,ESE,123,7.0,15.0,46,0.00,CLR,CLR,0.00,WeatherDisplay:10.23,2013-01-17 18:17:00,
2013-01-17 10:27:00,38.8,20.3,32.89,SE,124,7.0,10.0,47,0.00,CLR,CLR,0.00,WeatherDisplay:10.23,2013-01-17 18:27:00,
2013-01-17 10:37:00,38.8,20.3,32.89,SE,124,10.0,13.0,47,0.00,CLR,CLR,0.00,WeatherDisplay:10.23,2013-01-17 18:37:00,
2013-01-17 10:47:00,39.2,20.6,32.89,SE,128,8.0,14.0,47,0.00,CLR,CLR,0.00,WeatherDisplay:10.23,2013-01-17 18:47:00,
2013-01-17 10:57:00,39.7,20.7,32.89,ESE,118,7.0,13.0,46,0.00,CLR,CLR,0.00,WeatherDisplay:10.23,2013-01-17 18:57:00,
2013-01-17 11:07:00,40.4,21.2,32.89,ESE,121,7.0,12.0,46,0.00,CLR,CLR,0.00,WeatherDisplay:10.23,2013-01-17 19:07:00,
2013-01-17 11:17:00,40.7,21.5,32.89,ESE,120,8.0,15.0,46,0.00,CLR,CLR,0.00,WeatherDisplay:10.23,2013-01-17 19:17:00,
2013-01-17 11:27:00,41.2,21.0,32.89,ESE,113,9.0,16.0,44,0.00,CLR,CLR,0.00,WeatherDisplay:10.23,2013-01-17 19:27:00,
2013-01-17 11:37:00,41.6,20.7,32.89,ESE,113,9.0,18.0,43,0.00,CLR,CLR,0.00,WeatherDisplay:10.23,2013-01-17 19:37:00,
2013-01-17 11:47:00,42.7,20.7,32.89,ESE,117,10.0,20.0,41,0.00,CLR,CLR,0.00,WeatherDisplay:10.23,2013-01-17 19:47:00,
2013-01-17 11:57:00,43.0,20.4,32.89,ESE,119,12.0,18.0,40,0.00,CLR,CLR,0.00,WeatherDisplay:10.23,2013-01-17 19:57:00,
2013-01-17 12:07:00,43.5,20.8,32.89,ESE,113,13.0,18.0,40,0.00,CLR,CLR,0.00,WeatherDisplay:10.23,2013-01-17 20:07:00,
2013-01-17 12:17:00,43.9,20.0,32.89,ESE,114,9.0,18.0,38,0.00,CLR,CLR,0.00,WeatherDisplay:10.23,2013-01-17 20:17:00,
2013-01-17 12:27:00,44.9,21.5,32.89,ESE,120,9.0,18.0,39,0.00,CLR,CLR,0.00,WeatherDisplay:10.23,2013-01-17 20:27:00,
2013-01-17 12:37:00,45.3,21.9,32.89,ESE,113,10.0,17.0,39,0.00,CLR,CLR,0.00,WeatherDisplay:10.23,2013-01-17 20:37:00,
2013-01-17 12:46:00,45.5,21.4,32.89,ESE,113,8.0,20.0,38,0.00,CLR,CLR,0.00,WeatherDisplay:10.23,2013-01-17 20:46:00,
2013-01-17 12:56:00,45.8,21.7,32.89,ESE,111,15.0,20.0,38,0.00,CLR,CLR,0.00,WeatherDisplay:10.23,2013-01-17 20:56:00,
2013-01-17 13:06:00,46.5,22.3,32.89,ESE,108,9.0,15.0,38,0.00,CLR,CLR,0.00,WeatherDisplay:10.23,2013-01-17 21:06:00,
2013-01-17 13:16:00,46.5,21.6,32.89,ESE,113,10.0,16.0,37,0.00,CLR,CLR,0.00,WeatherDisplay:10.23,2013-01-17 21:16:00,
2013-01-17 13:26:00,46.8,21.3,32.89,ESE,106,13.0,15.0,36,0.00,CLR,CLR,0.00,WeatherDisplay:10.23,2013-01-17 21:26:00,
2013-01-17 13:36:00,46.9,21.4,32.89,ESE,108,13.0,18.0,36,0.00,CLR,CLR,0.00,WeatherDisplay:10.23,2013-01-17 21:36:00,
2013-01-17 13:46:00,47.4,21.8,32.89,ESE,113,10.0,13.0,36,0.00,CLR,CLR,0.00,WeatherDisplay:10.23,2013-01-17 21:46:00,
2013-01-17 13:56:00,47.4,22.5,32.89,ESE,110,7.0,17.0,37,0.00,CLR,CLR,0.00,WeatherDisplay:10.23,2013-01-17 21:56:00,
2013-01-17 14:06:00,47.8,20.1,32.89,ESE,113,12.0,20.0,33,0.00,CLR,CLR,0.00,WeatherDisplay:10.23,2013-01-17 22:06:00,
2013-01-17 14:16:00,47.9,21.6,32.89,ESE,118,6.0,13.0,35,0.00,CLR,CLR,0.00,WeatherDisplay:10.23,2013-01-17 22:16:00,
2013-01-17 14:26:00,48.2,21.8,32.89,ESE,115,9.0,13.0,35,0.00,CLR,CLR,0.00,WeatherDisplay:10.23,2013-01-17 22:26:00,
2013-01-17 14:36:00,48.5,22.1,32.89,ESE,119,10.0,15.0,35,0.00,CLR,CLR,0.00,WeatherDisplay:10.23,2013-01-17 22:36:00,
2013-01-17 14:46:00,48.5,22.2,32.89,ESE,113,6.0,12.0,35,0.00,CLR,CLR,0.00,WeatherDisplay:10.23,2013-01-17 22:46:00,
2013-01-17 14:56:00,48.6,22.2,32.89,ESE,118,7.0,15.0,35,0.00,CLR,CLR,0.00,WeatherDisplay:10.23,2013-01-17 22:56:00,
2013-01-17 15:06:00,48.6,21.5,32.89,ESE,117,9.0,12.0,34,0.00,CLR,CLR,0.00,WeatherDisplay:10.23,2013-01-17 23:06:00,
2013-01-17 15:16:00,48.5,22.1,32.89,ESE,115,5.0,13.0,35,0.00,CLR,CLR,0.00,WeatherDisplay:10.23,2013-01-17 23:16:00,
2013-01-17 15:26:00,48.0,22.4,32.89,ESE,117,7.0,13.0,36,0.00,CLR,CLR,0.00,WeatherDisplay:10.23,2013-01-17 23:26:00,
2013-01-17 15:36:00,47.7,22.1,32.89,SE,126,7.0,12.0,36,0.00,CLR,CLR,0.00,WeatherDisplay:10.23,2013-01-17 23:36:00,
2013-01-17 15:45:00,47.8,22.1,32.89,SE,132,8.0,12.0,36,0.00,CLR,CLR,0.00,WeatherDisplay:10.23,2013-01-17 23:45:00,
2013-01-17 15:55:00,47.7,21.4,32.89,SE,132,6.0,9.0,35,0.00,CLR,CLR,0.00,WeatherDisplay:10.23,2013-01-17 23:55:00,
2013-01-17 16:05:00,47.4,21.8,32.89,SE,135,6.0,10.0,36,0.00,CLR,CLR,0.00,WeatherDisplay:10.23,2013-01-18 00:05:00,
2013-01-17 16:15:00,46.8,21.3,32.89,SE,131,9.0,13.0,36,0.00,CLR,CLR,0.00,WeatherDisplay:10.23,2013-01-18 00:15:00,
2013-01-17 16:25:00,46.2,20.7,32.89,SE,131,6.0,12.0,36,0.00,OVC,OVC,0.00,WeatherDisplay:10.23,2013-01-18 00:25:00,
2013-01-17 16:35:00,45.4,21.3,32.89,SE,125,7.0,12.0,38,0.00,OVC,OVC,0.00,WeatherDisplay:10.23,2013-01-18 00:35:00,
2013-01-17 16:45:00,44.7,21.3,32.89,SE,133,6.0,9.0,39,0.00,OVC,OVC,0.00,WeatherDisplay:10.23,2013-01-18 00:45:00,
2013-01-17 16:55:00,43.7,20.9,32.89,SE,135,6.0,9.0,40,0.00,OVC,OVC,0.00,WeatherDisplay:10.23,2013-01-18 00:55:00,
2013-01-17 17:05:00,42.9,21.4,32.89,SE,135,7.0,9.0,42,0.00,OVC,OVC,0.00,WeatherDisplay:10.23,2013-01-18 01:05:00,
2013-01-17 17:10:00,42.5,21.6,32.89,SE,135,6.0,12.0,43,0.00,OVC,OVC,0.00,WeatherDisplay:10.23,2013-01-18 01:10:00,
2013-01-17 17:20:00,42.0,21.1,32.89,SE,138,8.0,10.0,43,0.00,CLR,CLR,0.00,WeatherDisplay:10.23,2013-01-18 01:20:00,
2013-01-17 17:25:00,41.9,21.0,32.89,SE,142,8.0,12.0,43,0.00,CLR,CLR,0.00,WeatherDisplay:10.23,2013-01-18 01:25:00,
2013-01-17 17:35:00,41.5,20.7,32.89,SE,144,7.0,12.0,43,0.00,CLR,CLR,0.00,WeatherDisplay:10.23,2013-01-18 01:35:00,
2013-01-17 17:45:00,41.2,20.9,32.89,SE,125,8.0,12.0,44,0.00,CLR,CLR,0.00,WeatherDisplay:10.23,2013-01-18 01:45:00,
2013-01-17 17:55:00,40.9,20.7,32.89,ESE,113,8.0,13.0,44,0.00,CLR,CLR,0.00,WeatherDisplay:10.23,2013-01-18 01:55:00,
2013-01-17 18:05:00,40.4,20.8,32.89,ESE,117,7.0,12.0,45,0.00,CLR,CLR,0.00,WeatherDisplay:10.23,2013-01-18 02:05:00,
2013-01-17 18:14:00,40.2,20.6,32.89,SE,140,7.0,12.0,45,0.00,CLR,CLR,0.00,WeatherDisplay:10.23,2013-01-18 02:14:00,
2013-01-17 18:24:00,39.6,20.6,32.89,SE,139,8.0,10.0,46,0.00,CLR,CLR,0.00,WeatherDisplay:10.23,2013-01-18 02:24:00,
2013-01-17 18:34:00,39.2,20.2,32.89,SE,135,8.0,13.0,46,0.00,CLR,CLR,0.00,WeatherDisplay:10.23,2013-01-18 02:34:00,
2013-01-17 18:44:00,38.7,20.7,32.89,SE,133,7.0,14.0,48,0.00,CLR,CLR,0.00,WeatherDisplay:10.23,2013-01-18 02:44:00,
2013-01-17 18:54:00,38.9,19.9,32.89,ESE,123,10.0,17.0,46,0.00,CLR,CLR,0.00,WeatherDisplay:10.23,2013-01-18 02:54:00,
2013-01-17 19:04:00,39.0,19.4,32.89,ESE,114,9.0,15.0,45,0.00,CLR,CLR,0.00,WeatherDisplay:10.23,2013-01-18 03:04:00,
2013-01-17 19:14:00,38.9,19.4,32.89,ESE,114,10.0,16.0,45,0.00,CLR,CLR,0.00,WeatherDisplay:10.23,2013-01-18 03:14:00,
2013-01-17 19:24:00,38.7,19.2,32.89,ESE,113,9.0,15.0,45,0.00,CLR,CLR,0.00,WeatherDisplay:10.23,2013-01-18 03:24:00,
2013-01-17 19:34:00,38.3,19.3,32.89,ESE,114,10.0,15.0,46,0.00,CLR,CLR,0.00,WeatherDisplay:10.23,2013-01-18 03:34:00,
2013-01-17 19:44:00,38.1,19.2,32.89,ESE,113,12.0,20.0,46,0.00,CLR,CLR,0.00,WeatherDisplay:10.23,2013-01-18 03:44:00,
2013-01-17 19:54:00,37.9,18.9,32.89,ESE,113,12.0,16.0,46,0.00,CLR,CLR,0.00,WeatherDisplay:10.23,2013-01-18 03:54:00,
2013-01-17 20:04:00,37.4,19.5,32.89,ESE,113,7.0,12.0,48,0.00,CLR,CLR,0.00,WeatherDisplay:10.23,2013-01-18 04:04:00,
2013-01-17 20:14:00,37.4,19.0,32.89,SE,124,8.0,14.0,47,0.00,CLR,CLR,0.00,WeatherDisplay:10.23,2013-01-18 04:14:00,
2013-01-17 20:24:00,37.5,19.1,32.89,ESE,121,8.0,13.0,47,0.00,CLR,CLR,0.00,WeatherDisplay:10.23,2013-01-18 04:24:00,
2013-01-17 20:34:00,37.5,19.1,32.89,SE,129,9.0,14.0,47,0.00,CLR,CLR,0.00,WeatherDisplay:10.23,2013-01-18 04:34:00,
2013-01-17 20:39:00,37.5,18.6,32.89,SE,129,9.0,14.0,46,0.00,CLR,CLR,0.00,WeatherDisplay:10.23,2013-01-18 04:39:00,
2013-01-17 20:50:00,37.4,18.5,32.89,ESE,120,9.0,15.0,46,0.00,CLR,CLR,0.00,WeatherDisplay:10.23,2013-01-18 04:50:00,
2013-01-17 20:55:00,37.1,18.7,32.89,ESE,117,9.0,17.0,47,0.00,CLR,CLR,0.00,WeatherDisplay:10.23,2013-01-18 04:55:00,
2013-01-17 21:00:00,36.8,19.0,32.89,ESE,116,7.0,16.0,48,0.00,CLR,CLR,0.00,WeatherDisplay:10.23,2013-01-18 05:00:00,
2013-01-17 21:05:00,36.6,18.8,32.89,ESE,121,9.0,14.0,48,0.00,CLR,CLR,0.00,WeatherDisplay:10.23,2013-01-18 05:05:00,
2013-01-17 21:15:00,36.5,18.7,32.89,SE,129,10.0,14.0,48,0.00,CLR,CLR,0.00,WeatherDisplay:10.23,2013-01-18 05:15:00,
2013-01-17 21:19:00,36.2,18.4,32.89,SE,127,10.0,15.0,48,0.00,CLR,CLR,0.00,WeatherDisplay:10.23,2013-01-18 05:19:00,
2013-01-17 21:24:00,36.1,18.8,32.89,SE,128,7.0,14.0,49,0.00,CLR,CLR,0.00,WeatherDisplay:10.23,2013-01-18 05:24:00,
2013-01-17 21:29:00,35.7,18.4,32.89,SE,132,10.0,15.0,49,0.00,CLR,CLR,0.00,WeatherDisplay:10.23,2013-01-18 05:29:00,
2013-01-17 21:34:00,35.7,18.4,32.89,SE,135,10.0,15.0,49,0.00,CLR,CLR,0.00,WeatherDisplay:10.23,2013-01-18 05:34:00,
2013-01-17 21:44:00,35.4,18.6,32.89,SE,137,12.0,15.0,50,0.00,CLR,CLR,0.00,WeatherDisplay:10.23,2013-01-18 05:44:00,
2013-01-17 21:54:00,35.5,18.2,32.89,ESE,117,9.0,13.0,49,0.00,CLR,CLR,0.00,WeatherDisplay:10.23,2013-01-18 05:54:00,
2013-01-17 22:04:00,35.3,18.5,32.89,SE,130,8.0,15.0,50,0.00,CLR,CLR,0.00,WeatherDisplay:10.23,2013-01-18 06:04:00,
2013-01-17 22:14:00,35.0,18.2,32.89,SE,135,10.0,15.0,50,0.00,CLR,CLR,0.00,WeatherDisplay:10.23,2013-01-18 06:14:00,
2013-01-17 22:24:00,34.8,18.5,32.89,SE,130,9.0,14.0,51,0.00,CLR,CLR,0.00,WeatherDisplay:10.23,2013-01-18 06:24:00,
2013-01-17 22:34:00,34.1,18.3,32.89,SE,135,9.0,14.0,52,0.00,CLR,CLR,0.00,WeatherDisplay:10.23,2013-01-18 06:34:00,
2013-01-17 22:44:00,33.7,18.4,32.89,SE,139,9.0,14.0,53,0.00,CLR,CLR,0.00,WeatherDisplay:10.23,2013-01-18 06:44:00,
2013-01-17 22:54:00,33.5,18.2,32.89,SE,125,7.0,13.0,53,0.00,CLR,CLR,0.00,WeatherDisplay:10.23,2013-01-18 06:54:00,
2013-01-17 23:04:00,33.7,18.4,32.89,SE,127,7.0,12.0,53,0.00,CLR,CLR,0.00,WeatherDisplay:10.23,2013-01-18 07:04:00,
2013-01-17 23:14:00,34.0,18.2,32.89,ESE,117,12.0,15.0,52,0.00,CLR,CLR,0.00,WeatherDisplay:10.23,2013-01-18 07:14:00,
2013-01-17 23:24:00,34.2,17.5,32.89,ESE,113,10.0,16.0,50,0.00,CLR,CLR,0.00,WeatherDisplay:10.23,2013-01-18 07:24:00,
2013-01-17 23:34:00,34.3,17.2,32.89,ESE,113,12.0,15.0,49,0.00,CLR,CLR,0.00,WeatherDisplay:10.23,2013-01-18 07:34:00,
2013-01-17 23:44:00,33.8,17.6,32.89,SE,127,8.0,14.0,51,0.00,CLR,CLR,0.00,WeatherDisplay:10.23,2013-01-18 07:44:00,
2013-01-17 23:50:00,33.5,17.8,32.89,ESE,122,12.0,15.0,52,0.00,CLR,CLR,0.00,WeatherDisplay:10.23,2013-01-18 07:50:00,